Time;durP1;ratioP1;P1;durP2;ratioP2;P2;SDS_P1;SDS_P2;PMS_P1;PMS_P2;Temp;Humidity;BMP_temperature;BMP_pressure;BME280_temperature;BME280_humidity;BME280_pressure;Samples;Min_cycle;Max_cycle;Signal;HPM_P1;HPM_P2
2022/12/15 00:39:10;;;;;;;20.05;10.23;;;;;;;-1.59;100.00;100731.56;5010071;28;20419;-61
2022/12/15 00:41:35;;;;;;;19.55;10.63;;;;;;;-1.58;100.00;100726.41;5009402;28;20025;-60
2022/12/15 00:44:01;;;;;;;19.13;10.55;;;;;;;-1.59;100.00;100734.13;5008626;28;20085;-64
2022/12/15 00:50:50;;;;;;;20.13;10.88;;;;;;;-1.74;100.00;100742.53;5009667;28;20088;-66
2022/12/15 01:21:59;;;;;;;17.92;10.90;;;;;;;-0.99;100.00;100764.25;5008816;28;20033;-62
2022/12/15 01:24:24;;;;;;;19.80;10.88;;;;;;;-1.07;100.00;100764.13;5009361;28;20029;-55
2022/12/15 01:26:50;;;;;;;24.15;11.95;;;;;;;-1.20;100.00;100765.69;5008481;28;20022;-59
2022/12/15 01:29:15;;;;;;;19.13;10.18;;;;;;;-1.29;100.00;100767.28;5008533;28;20125;-63
2022/12/15 01:31:42;;;;;;;25.08;12.18;;;;;;;-1.37;100.00;100773.19;5008938;28;20057;-62
2022/12/15 01:34:07;;;;;;;23.55;11.23;;;;;;;-1.49;100.00;100771.31;5007066;28;20092;-61
2022/12/15 01:36:32;;;;;;;21.17;11.48;;;;;;;-1.58;100.00;100764.28;5007883;28;20203;-64
2022/12/15 01:38:58;;;;;;;20.98;12.38;;;;;;;-1.61;100.00;100770.28;4989431;28;20057;-64
2022/12/15 01:41:23;;;;;;;22.00;12.27;;;;;;;-1.66;100.00;100774.50;5007732;28;20022;-64
2022/12/15 01:43:49;;;;;;;21.75;11.20;;;;;;;-1.68;100.00;100773.63;5007444;28;20065;-64
2022/12/15 01:46:17;;;;;;;26.88;12.98;;;;;;;-1.68;100.00;100774.47;5012789;28;20635;-64
2022/12/15 01:48:46;;;;;;;25.23;12.70;;;;;;;-1.62;100.00;100778.91;5011645;28;20030;-64
2022/12/15 01:51:24;;;;;;;27.55;13.15;;;;;;;-1.63;100.00;100773.69;5011458;28;20269;-62
2022/12/15 01:53:56;;;;;;;24.02;13.05;;;;;;;-1.52;100.00;100777.31;5011979;28;20389;-63
2022/12/15 01:56:24;;;;;;;28.33;14.75;;;;;;;-1.46;100.00;100789.44;5012507;28;20026;-62
2022/12/15 01:58:50;;;;;;;23.92;13.65;;;;;;;-1.44;100.00;100786.03;4995200;28;20117;-56
2022/12/15 02:01:16;;;;;;;31.17;14.43;;;;;;;-1.46;100.00;100786.88;5011475;28;20437;-63
2022/12/15 02:03:43;;;;;;;30.38;14.05;;;;;;;-1.46;100.00;100784.28;5012208;28;20036;-57
2022/12/15 02:06:09;;;;;;;29.27;13.82;;;;;;;-1.50;100.00;100790.25;5010315;28;20030;-62
2022/12/15 02:08:35;;;;;;;29.58;13.70;;;;;;;-1.54;100.00;100792.78;5011751;28;20388;-64
2022/12/15 02:11:07;;;;;;;24.77;14.05;;;;;;;-1.58;100.00;100796.19;5011842;28;20021;-62
2022/12/15 02:13:44;;;;;;;31.33;15.02;;;;;;;-1.60;100.00;100795.28;5012455;28;20095;-61
2022/12/15 02:16:21;;;;;;;26.90;14.27;;;;;;;-1.58;100.00;100801.34;5012247;28;20068;-62
2022/12/15 02:18:52;;;;;;;35.05;15.90;;;;;;;-1.58;100.00;100797.88;5010925;28;20037;-63
2022/12/15 02:21:28;;;;;;;31.83;15.63;;;;;;;-1.58;100.00;100795.31;5011154;28;20069;-64
2022/12/15 02:24:18;;;;;;;30.92;14.18;;;;;;;-1.64;100.00;100796.06;5011204;28;20120;-63
2022/12/15 02:26:43;;;;;;;29.15;14.93;;;;;;;-1.67;100.00;100786.56;5009688;28;20034;-63
2022/12/15 02:29:27;;;;;;;28.15;15.48;;;;;;;-1.73;100.00;100789.06;5011859;28;20477;-64
2022/12/15 02:32:13;;;;;;;31.95;15.70;;;;;;;-1.75;100.00;100800.22;5012645;28;20441;-60
2022/12/15 02:34:43;;;;;;;33.38;15.63;;;;;;;-1.75;100.00;100790.72;5011046;28;20171;-63
2022/12/15 02:37:10;;;;;;;27.45;15.10;;;;;;;-1.72;100.00;100784.75;5010796;28;20132;-63
2022/12/15 02:39:35;;;;;;;32.33;16.52;;;;;;;-1.71;100.00;100789.06;5010767;28;20093;-62
2022/12/15 02:42:01;;;;;;;29.33;15.73;;;;;;;-1.77;100.00;100795.03;5011331;28;20177;-59
2022/12/15 02:44:33;;;;;;;28.58;15.75;;;;;;;-1.88;100.00;100801.69;5012223;28;20026;-63
2022/12/15 02:47:08;;;;;;;30.15;16.02;;;;;;;-1.94;100.00;100800.78;5010563;28;20039;-59
2022/12/15 02:50:07;;;;;;;31.67;15.57;;;;;;;-1.93;100.00;100807.66;5011356;28;20345;-63
2022/12/15 02:52:54;;;;;;;32.38;16.88;;;;;;;-1.91;100.00;100812.84;4994459;28;20369;-64
2022/12/15 02:55:34;;;;;;;26.10;14.40;;;;;;;-1.95;100.00;100811.06;5011046;28;20087;-61
2022/12/15 02:58:04;;;;;;;27.98;15.90;;;;;;;-1.89;100.00;100811.19;5011826;28;20096;-63
2022/12/15 03:00:32;;;;;;;29.30;16.23;;;;;;;-1.81;100.00;100809.59;5010469;28;20049;-55
2022/12/15 03:02:58;;;;;;;33.47;17.33;;;;;;;-1.68;100.00;100805.47;5010544;28;20033;-62
2022/12/15 03:05:23;;;;;;;34.70;17.50;;;;;;;-1.58;100.00;100814.28;5012025;28;20022;-61
2022/12/15 03:07:51;;;;;;;33.78;17.80;;;;;;;-1.54;100.00;100812.59;5011782;28;20029;-65
2022/12/15 03:10:16;;;;;;;35.65;18.65;;;;;;;-1.59;100.00;100804.78;5010622;28;20033;-62
2022/12/15 03:12:41;;;;;;;30.30;16.48;;;;;;;-1.61;100.00;100811.63;5010163;28;20435;-64
2022/12/15 03:15:07;;;;;;;36.88;16.80;;;;;;;-1.60;100.00;100803.03;5011193;28;20125;-60
2022/12/15 03:17:33;;;;;;;40.80;17.05;;;;;;;-1.55;100.00;100803.97;5011385;28;20107;-63
2022/12/15 03:19:58;;;;;;;28.30;16.85;;;;;;;-1.58;100.00;100809.09;5010395;28;20068;-61
2022/12/15 03:22:24;;;;;;;34.03;17.38;;;;;;;-1.61;100.00;100815.91;5011407;28;20108;-57
2022/12/15 03:24:49;;;;;;;35.38;16.05;;;;;;;-1.67;100.00;100817.56;5010739;28;20026;-64
2022/12/15 03:27:14;;;;;;;31.52;16.13;;;;;;;-1.75;100.00;100819.16;5010191;28;20640;-62
2022/12/15 03:29:40;;;;;;;30.00;15.38;;;;;;;-1.70;100.00;100824.41;5011070;28;20030;-64
2022/12/15 03:32:05;;;;;;;33.78;16.95;;;;;;;-1.71;100.00;100822.66;5009267;28;20057;-64
2022/12/15 03:34:30;;;;;;;33.55;16.48;;;;;;;-1.79;100.00;100818.25;5011103;28;20511;-62
2022/12/15 03:36:56;;;;;;;32.45;15.38;;;;;;;-1.93;100.00;100820.56;5010601;28;20600;-62
2022/12/15 03:39:21;;;;;;;30.65;15.68;;;;;;;-2.06;100.00;100832.41;5010965;28;20026;-65
2022/12/15 03:41:47;;;;;;;30.85;16.33;;;;;;;-2.11;100.00;100823.69;5008878;28;20085;-64
2022/12/15 03:44:12;;;;;;;28.48;15.02;;;;;;;-2.14;100.00;100822.78;5010530;28;20029;-63
2022/12/15 03:46:37;;;;;;;30.80;16.20;;;;;;;-2.12;100.00;100832.28;5010964;28;20033;-64
2022/12/15 03:49:03;;;;;;;30.35;16.45;;;;;;;-2.09;100.00;100832.34;5009527;28;20030;-62
2022/12/15 03:51:28;;;;;;;28.67;15.48;;;;;;;-2.02;100.00;100823.00;5010534;28;20465;-63
2022/12/15 03:53:53;;;;;;;27.70;15.30;;;;;;;-1.98;100.00;100826.50;5009920;28;20440;-60
2022/12/15 03:56:19;;;;;;;28.55;15.55;;;;;;;-1.99;100.00;100837.69;5009657;28;20063;-63
2022/12/15 03:58:44;;;;;;;32.10;16.05;;;;;;;-1.97;100.00;100833.41;5010120;28;20046;-62
2022/12/15 04:01:26;;;;;;;28.63;15.63;;;;;;;-1.99;100.00;100835.97;5010459;28;20034;-64
2022/12/15 04:03:51;;;;;;;33.10;16.33;;;;;;;-1.88;100.00;100828.41;4993133;28;20508;-62
2022/12/15 04:06:17;;;;;;;37.60;16.42;;;;;;;-1.79;100.00;100831.16;5009689;28;20107;-62
2022/12/15 04:08:42;;;;;;;30.90;17.15;;;;;;;-1.74;100.00;100831.25;5010369;28;20475;-62
2022/12/15 04:11:07;;;;;;;29.35;16.00;;;;;;;-1.70;100.00;100826.97;5008212;28;20022;-63
2022/12/15 04:13:33;;;;;;;31.65;16.88;;;;;;;-1.64;100.00;100837.41;5010153;28;20053;-62
2022/12/15 04:16:00;;;;;;;26.27;15.32;;;;;;;-1.70;100.00;100826.97;5010044;28;20416;-59
2022/12/15 04:18:26;;;;;;;27.98;16.40;;;;;;;-1.68;100.00;100827.88;5010315;28;20491;-64
2022/12/15 04:20:51;;;;;;;31.90;17.02;;;;;;;-1.69;100.00;100821.84;5009746;28;20029;-61
2022/12/15 04:23:16;;;;;;;39.40;15.60;;;;;;;-1.61;100.00;100823.69;5009509;28;20095;-62
2022/12/15 05:31:51;;;;;;;27.45;14.30;;;;;;;-1.67;100.00;100847.69;5008902;28;20037;-62
2022/12/15 05:34:23;;;;;;;30.95;14.23;;;;;;;-1.75;100.00;100847.56;5008379;28;20026;-62
2022/12/15 05:36:49;;;;;;;28.95;13.85;;;;;;;-1.76;100.00;100843.25;5004722;28;20093;-62
2022/12/15 05:39:14;;;;;;;26.33;13.68;;;;;;;-1.79;100.00;100838.91;4999514;28;20026;-60
2022/12/15 05:41:40;;;;;;;31.48;13.95;;;;;;;-1.74;100.00;100851.91;5007659;28;20415;-58
2022/12/15 05:44:05;;;;;;;30.85;14.73;;;;;;;-1.70;100.00;100848.53;5008716;28;20030;-64
2022/12/15 05:46:31;;;;;;;38.10;14.27;;;;;;;-1.67;100.00;100848.59;5008424;28;20029;-62
2022/12/15 05:48:56;;;;;;;27.13;14.02;;;;;;;-1.61;100.00;100847.81;5008005;28;20030;-63
2022/12/15 05:51:21;;;;;;;29.45;14.65;;;;;;;-1.60;100.00;100846.09;5008267;28;20026;-60
2022/12/15 05:53:47;;;;;;;28.33;14.05;;;;;;;-1.58;100.00;100855.63;5008158;28;20504;-62
2022/12/15 05:56:13;;;;;;;33.35;15.30;;;;;;;-1.63;100.00;100852.06;5006115;28;20073;-62
2022/12/15 05:58:39;;;;;;;26.05;13.60;;;;;;;-1.67;100.00;100858.91;5007151;28;20464;-60
2022/12/15 06:01:16;;;;;;;30.08;13.80;;;;;;;-1.63;100.00;100865.00;5007058;28;20028;-62
2022/12/15 06:03:42;;;;;;;23.50;13.80;;;;;;;-1.62;100.00;100864.16;5008415;28;20472;-63
2022/12/15 06:06:09;;;;;;;31.58;14.57;;;;;;;-1.64;100.00;100878.75;5008070;28;20037;-61
2022/12/15 06:08:37;;;;;;;26.60;14.30;;;;;;;-1.68;100.00;100876.97;5008408;28;20436;-62
2022/12/15 06:11:02;;;;;;;29.77;16.00;;;;;;;-1.78;100.00;100873.34;5007347;28;20537;-62
2022/12/15 06:13:33;;;;;;;29.20;15.20;;;;;;;-1.73;100.00;100876.91;5008043;28;20026;-60
2022/12/15 06:16:10;;;;;;;25.70;15.25;;;;;;;-1.63;100.00;100884.81;5008296;28;20025;-63
2022/12/15 06:18:38;;;;;;;31.20;15.80;;;;;;;-1.61;100.00;100880.53;5008007;28;20026;-61
2022/12/15 06:21:09;;;;;;;39.38;15.85;;;;;;;-1.55;100.00;100883.22;5008012;28;20034;-63
2022/12/15 06:23:35;;;;;;;31.13;15.82;;;;;;;-1.61;100.00;100885.69;5005699;28;20124;-63
2022/12/15 06:26:13;;;;;;;28.30;15.95;;;;;;;-1.66;100.00;100888.19;5006073;28;20385;-60
2022/12/15 06:28:38;;;;;;;28.38;15.80;;;;;;;-1.71;100.00;100893.31;5007162;28;20029;-61
2022/12/15 06:31:05;;;;;;;38.50;16.35;;;;;;;-1.76;100.00;100894.03;5010330;28;20032;-61
2022/12/15 06:33:31;;;;;;;31.45;15.38;;;;;;;-1.80;100.00;100896.56;5009574;28;20033;-61
2022/12/15 06:36:00;;;;;;;29.77;17.17;;;;;;;-1.74;100.00;100898.41;5010152;28;20014;-61
2022/12/15 06:38:27;;;;;;;28.60;15.70;;;;;;;-1.68;100.00;100895.91;5011581;28;20069;-63
2022/12/15 06:40:59;;;;;;;30.02;15.23;;;;;;;-1.62;100.00;100897.75;5010908;28;20029;-62
2022/12/15 06:43:25;;;;;;;39.78;16.00;;;;;;;-1.60;100.00;100890.03;5010022;28;20053;-58
2022/12/15 06:45:51;;;;;;;32.65;15.38;;;;;;;-1.62;100.00;100887.44;5011573;28;20495;-61
2022/12/15 06:48:17;;;;;;;31.63;14.55;;;;;;;-1.63;100.00;100890.84;5010903;28;20026;-62
2022/12/15 06:50:44;;;;;;;35.42;15.00;;;;;;;-1.66;100.00;100890.78;5001679;28;20034;-62
2022/12/15 06:53:10;;;;;;;34.05;16.15;;;;;;;-1.68;100.00;100885.59;5007312;28;20026;-63
2022/12/15 06:55:35;;;;;;;32.03;15.68;;;;;;;-1.66;100.00;100886.50;5007752;28;20018;-57
2022/12/15 06:58:01;;;;;;;30.30;14.13;;;;;;;-1.66;100.00;100891.66;5010751;28;20029;-62
2022/12/15 07:00:26;;;;;;;34.70;15.77;;;;;;;-1.64;100.00;100889.09;5010257;28;20117;-63
2022/12/15 07:02:52;;;;;;;30.95;16.17;;;;;;;-1.65;100.00;100892.53;5010570;28;20079;-62
2022/12/15 07:05:18;;;;;;;29.13;16.02;;;;;;;-1.66;100.00;100890.78;5011115;28;20026;-62
2022/12/15 07:07:43;;;;;;;31.48;16.25;;;;;;;-1.67;100.00;100894.22;5010484;28;20045;-62
2022/12/15 07:10:09;;;;;;;29.20;13.75;;;;;;;-1.80;100.00;100898.31;5009695;28;20629;-62
2022/12/15 07:12:35;;;;;;;25.50;14.38;;;;;;;-1.88;100.00;100900.75;5010537;28;20061;-61
2022/12/15 07:15:00;;;;;;;23.52;15.07;;;;;;;-1.88;100.00;100905.91;5010477;28;20457;-63
2022/12/15 07:17:25;;;;;;;27.45;15.43;;;;;;;-1.83;100.00;100903.41;5010598;28;20471;-63
2022/12/15 07:19:51;;;;;;;29.38;15.77;;;;;;;-1.75;100.00;100907.00;5011114;28;20108;-63
2022/12/15 07:22:16;;;;;;;30.17;14.68;;;;;;;-1.71;100.00;100897.59;5010731;28;20029;-62
2022/12/15 07:24:42;;;;;;;31.05;14.50;;;;;;;-1.69;100.00;100901.06;5010059;28;20028;-61
2022/12/15 07:27:08;;;;;;;29.25;15.55;;;;;;;-1.67;100.00;100907.13;5010657;28;20030;-64
2022/12/15 07:29:33;;;;;;;33.90;15.43;;;;;;;-1.68;100.00;100897.66;5009936;28;20037;-63
2022/12/15 07:31:59;;;;;;;25.63;15.25;;;;;;;-1.79;100.00;100906.09;5010274;28;20057;-62
2022/12/15 07:34:25;;;;;;;33.53;16.10;;;;;;;-1.86;100.00;100901.66;5009993;28;20022;-60
2022/12/15 07:36:50;;;;;;;33.85;15.77;;;;;;;-1.86;100.00;100899.06;5011092;28;20029;-63
2022/12/15 07:39:15;;;;;;;27.98;15.73;;;;;;;-1.84;100.00;100912.00;5009615;28;20029;-61
2022/12/15 07:41:41;;;;;;;30.48;14.90;;;;;;;-1.81;100.00;100907.75;5009858;28;20034;-60
2022/12/15 07:44:06;;;;;;;25.60;16.42;;;;;;;-1.73;100.00;100914.78;5009908;28;20030;-61
2022/12/15 07:46:32;;;;;;;36.40;16.30;;;;;;;-1.68;100.00;100916.59;5010913;28;20033;-64
2022/12/15 07:48:57;;;;;;;36.60;16.73;;;;;;;-1.59;100.00;100918.50;5010591;28;20655;-60
2022/12/15 07:51:23;;;;;;;33.25;15.85;;;;;;;-1.51;100.00;100921.19;5010618;28;20025;-62
2022/12/15 07:53:49;;;;;;;33.63;15.75;;;;;;;-1.46;100.00;100919.56;5011420;28;20026;-63
2022/12/15 07:56:14;;;;;;;32.05;16.30;;;;;;;-1.43;100.00;100922.22;5009809;28;20033;-64
2022/12/15 07:58:40;;;;;;;29.00;15.38;;;;;;;-1.47;100.00;100930.75;5010809;28;20026;-64
2022/12/15 08:01:07;;;;;;;35.10;16.42;;;;;;;-1.47;100.00;100919.53;5010442;28;20076;-62
2022/12/15 08:03:33;;;;;;;34.00;16.45;;;;;;;-1.43;100.00;100929.09;5009868;28;20045;-64
2022/12/15 08:06:05;;;;;;;30.05;15.95;;;;;;;-1.42;100.00;100926.53;5010131;28;20030;-63
2022/12/15 08:08:31;;;;;;;32.58;15.35;;;;;;;-1.33;100.00;100930.13;5009433;28;20057;-65
2022/12/15 08:10:57;;;;;;;31.80;16.67;;;;;;;-1.25;100.00;100925.06;5009551;28;20108;-63
2022/12/15 08:13:22;;;;;;;31.33;15.45;;;;;;;-1.18;100.00;100934.66;5004364;28;20484;-63
2022/12/15 08:15:52;;;;;;;31.08;16.63;;;;;;;-1.16;100.00;100932.97;4997468;28;20447;-62
2022/12/15 08:18:18;;;;;;;32.20;17.77;;;;;;;-1.13;100.00;100935.63;5005105;28;20030;-63
2022/12/15 08:20:43;;;;;;;29.50;17.13;;;;;;;-1.16;100.00;100932.97;5007006;28;20294;-58
2022/12/15 08:23:08;;;;;;;27.58;17.05;;;;;;;-1.13;100.00;100934.72;5007500;28;20034;-66
2022/12/15 08:25:35;;;;;;;32.83;16.80;;;;;;;-1.08;100.00;100935.69;5008866;28;20065;-57
2022/12/15 08:28:00;;;;;;;31.25;15.05;;;;;;;-0.99;100.00;100937.56;5006556;28;20152;-59
2022/12/15 08:30:25;;;;;;;29.75;15.90;;;;;;;-1.03;100.00;100940.09;4997814;28;20101;-64
2022/12/15 08:32:51;;;;;;;31.65;16.88;;;;;;;-1.00;100.00;100951.34;5000318;28;20041;-64
2022/12/15 08:35:17;;;;;;;32.63;16.98;;;;;;;-0.94;100.00;100948.81;4997593;28;20022;-67
2022/12/15 08:37:42;;;;;;;34.80;17.30;;;;;;;-0.98;100.00;100947.03;5001308;28;20531;-61
2022/12/15 08:40:08;;;;;;;35.67;16.83;;;;;;;-0.93;100.00;100948.84;5008853;28;20457;-63
2022/12/15 08:42:34;;;;;;;36.65;16.88;;;;;;;-0.86;100.00;100948.94;5009655;28;20408;-64
2022/12/15 08:45:00;;;;;;;32.83;16.77;;;;;;;-0.88;100.00;100943.75;5009389;28;20485;-62
2022/12/15 08:47:25;;;;;;;31.85;16.00;;;;;;;-0.86;100.00;100944.66;5008524;28;20110;-64
2022/12/15 08:49:53;;;;;;;32.08;16.27;;;;;;;-0.88;100.00;100953.25;5001157;28;20034;-61
2022/12/15 08:52:18;;;;;;;31.55;16.70;;;;;;;-0.83;100.00;100957.63;4992297;28;20052;-65
2022/12/15 08:54:43;;;;;;;28.45;16.55;;;;;;;-0.83;100.00;100952.47;4989485;28;20038;-63
2022/12/15 08:57:09;;;;;;;33.90;17.42;;;;;;;-0.72;100.00;100955.19;4989670;28;20030;-64
2022/12/15 08:59:34;;;;;;;30.60;16.48;;;;;;;-0.69;100.00;100956.97;5004377;28;20032;-65
2022/12/15 09:02:00;;;;;;;30.10;17.27;;;;;;;-0.71;100.00;100961.25;5007820;28;20511;-64
2022/12/15 09:04:25;;;;;;;34.55;17.23;;;;;;;-0.60;100.00;100953.66;5008515;28;20038;-65
2022/12/15 09:06:51;;;;;;;34.03;17.27;;;;;;;-0.53;100.00;100951.16;5009019;28;20026;-63
2022/12/15 09:09:17;;;;;;;37.33;17.45;;;;;;;-0.37;100.00;100961.72;5007913;28;20038;-63
2022/12/15 09:11:42;;;;;;;34.13;17.15;;;;;;;-0.27;100.00;100961.00;5008940;28;20026;-63
2022/12/15 09:14:07;;;;;;;27.48;16.67;;;;;;;-0.19;100.00;100963.69;5008506;28;20040;-64
2022/12/15 09:16:33;;;;;;;34.25;16.48;;;;;;;-0.01;100.00;100969.94;5008707;28;20024;-63
2022/12/15 09:18:59;;;;;;;38.10;15.77;;;;;;;0.11;100.00;100969.22;5008708;28;20025;-64
2022/12/15 09:21:26;;;;;;;28.38;15.73;;;;;;;0.23;100.00;100960.69;5008763;28;20104;-59
2022/12/15 09:23:53;;;;;;;31.45;16.63;;;;;;;0.25;100.00;100965.03;5008974;28;20030;-63
2022/12/15 09:26:20;;;;;;;32.35;16.48;;;;;;;0.29;100.00;100965.97;5007467;28;20030;-61
2022/12/15 09:28:46;;;;;;;29.45;16.13;;;;;;;0.37;100.00;100963.47;5008648;28;20029;-64
2022/12/15 09:31:20;;;;;;;28.55;14.98;;;;;;;0.42;100.00;100966.09;5007150;28;20464;-62
2022/12/15 09:33:46;;;;;;;28.55;15.60;;;;;;;0.50;100.00;100967.91;5008109;28;20033;-64
2022/12/15 09:36:12;;;;;;;28.33;14.60;;;;;;;0.60;100.00;100968.00;5008219;28;20026;-64
2022/12/15 09:38:39;;;;;;;25.77;14.25;;;;;;;0.72;100.00;100965.50;5006509;28;20032;-63
2022/12/15 09:41:21;;;;;;;27.40;14.60;;;;;;;0.82;100.00;100969.06;5006331;28;20362;-64
2022/12/15 09:44:05;;;;;;;28.95;12.93;;;;;;;0.91;100.00;100977.78;5002218;28;20089;-64
2022/12/15 09:46:49;;;;;;;26.98;13.48;;;;;;;1.02;100.00;100970.09;5007473;28;20037;-60
2022/12/15 09:49:29;;;;;;;32.40;14.10;;;;;;;1.14;100.00;100972.75;5008385;28;20042;-65
2022/12/15 09:52:15;;;;;;;29.77;13.13;;;;;;;1.28;100.00;100983.25;5008499;28;20033;-60
2022/12/15 09:54:42;;;;;;;27.77;13.30;;;;;;;1.41;100.00;100983.34;5006129;28;20085;-64
2022/12/15 09:57:18;;;;;;;23.45;12.65;;;;;;;1.58;100.00;100975.63;5007032;28;20030;-64
2022/12/15 09:59:53;;;;;;;26.58;14.15;;;;;;;1.73;100.00;100982.66;5007721;28;20105;-63
2022/12/15 10:02:33;;;;;;;32.55;13.57;;;;;;;1.98;100.00;100980.16;5008655;28;20033;-64
2022/12/15 10:05:10;;;;;;;;;;;;;;;2.20;100.00;100990.66;5009047;28;20048;-64
2022/12/15 10:07:40;;;;;;;34.08;13.20;;;;;;;2.47;100.00;100995.03;5012903;28;20340;-59
2022/12/15 10:10:28;;;;;;;34.35;15.45;;;;;;;2.73;100.00;100991.63;5011762;28;20022;-62
2022/12/15 10:12:56;;;;;;;26.13;14.82;;;;;;;2.87;100.00;100999.47;5013289;28;20052;-64
2022/12/15 10:15:40;;;;;;;26.23;14.20;;;;;;;2.96;100.00;101002.94;5011948;28;20029;-64
2022/12/15 10:18:18;;;;;;;25.20;13.73;;;;;;;3.07;100.00;101001.19;5011091;28;20408;-64
2022/12/15 10:20:43;;;;;;;23.75;13.80;;;;;;;3.10;100.00;101001.19;5012457;28;20413;-61
2022/12/15 10:23:12;;;;;;;22.35;13.13;;;;;;;3.07;100.00;101005.53;5010967;28;20064;-63
2022/12/15 10:25:38;;;;;;;21.50;13.65;;;;;;;3.00;100.00;101005.53;5011374;28;20533;-64
2022/12/15 10:28:16;;;;;;;27.17;13.43;;;;;;;2.93;100.00;101009.00;5011768;28;20145;-61
2022/12/15 10:31:00;;;;;;;25.67;13.55;;;;;;;2.93;100.00;100998.59;5012459;28;20532;-57
2022/12/15 10:33:30;;;;;;;24.42;13.40;;;;;;;2.87;100.00;101003.78;5010835;28;20026;-65
2022/12/15 10:35:55;;;;;;;24.55;14.35;;;;;;;2.95;100.00;101006.41;5012521;28;20092;-61
2022/12/15 10:38:26;;;;;;;25.73;13.98;;;;;;;2.94;100.00;101002.94;5012490;28;20058;-65
2022/12/15 10:40:58;;;;;;;28.70;13.20;;;;;;;3.01;100.00;100999.44;5010742;28;20030;-65
2022/12/15 10:43:33;;;;;;;24.55;14.07;;;;;;;3.09;100.00;101002.06;5011009;28;20100;-63
2022/12/15 10:46:18;;;;;;;23.65;14.70;;;;;;;3.29;100.00;101006.41;4991763;28;20042;-63
2022/12/15 10:48:48;;;;;;;26.98;14.35;;;;;;;3.40;100.00;101001.16;4991352;28;20691;-59
2022/12/15 10:51:30;;;;;;;26.27;14.25;;;;;;;3.73;100.00;101001.13;5004845;28;20941;-64
2022/12/15 10:54:34;;;;;;;24.63;13.93;;;;;;;4.14;100.00;101007.03;5008483;28;20492;-64
2022/12/15 10:57:15;;;;;;;24.42;13.13;;;;;;;4.43;100.00;101006.03;4996438;28;20617;-65
2022/12/15 10:59:41;;;;;;;23.30;12.27;;;;;;;4.54;100.00;101013.78;5008203;28;20429;-66
2022/12/15 11:02:32;;;;;;;20.30;11.48;;;;;;;4.63;100.00;101000.69;5010676;28;20022;-63
2022/12/15 11:04:59;;;;;;;16.25;10.23;;;;;;;4.58;100.00;101007.69;5006842;28;20017;-63
2022/12/15 11:07:42;;;;;;;16.83;10.20;;;;;;;4.55;100.00;100992.06;4998625;28;20464;-56
2022/12/15 11:12:50;;;;;;;16.05;9.95;;;;;;;4.43;100.00;101004.28;5005270;28;20026;-63
2022/12/15 11:13:20;;;;;;;17.38;9.70;;;;;;;4.32;100.00;101000.00;5006616;28;20549;-61
2022/12/15 11:15:47;;;;;;;17.88;9.80;;;;;;;4.17;100.00;101000.06;5020981;28;20048;-62
2022/12/15 11:18:26;;;;;;;17.58;10.48;;;;;;;4.07;100.00;100995.78;5000181;28;20034;-65
2022/12/15 11:21:11;;;;;;;14.95;8.52;;;;;;;4.07;100.00;100995.78;5000639;28;20073;-64
2022/12/15 11:23:58;;;;;;;19.10;9.15;;;;;;;4.01;100.00;101001.84;5005873;28;20042;-65
2022/12/15 11:26:35;;;;;;;14.18;8.70;;;;;;;4.00;100.00;100999.28;4994242;28;20056;-65
2022/12/15 11:29:09;;;;;;;15.25;8.98;;;;;;;4.09;100.00;100998.38;5004760;28;20084;-65
2022/12/15 11:31:40;;;;;;;17.13;9.82;;;;;;;4.24;100.00;101000.91;5003767;28;20040;-65
2022/12/15 11:34:12;;;;;;;16.17;8.75;;;;;;;4.44;100.00;100997.31;5007479;28;20072;-65
2022/12/15 11:36:51;;;;;;;16.92;8.52;;;;;;;4.65;100.00;100985.88;5006327;28;20024;-66
2022/12/15 11:39:50;;;;;;;13.75;8.15;;;;;;;4.80;100.00;100984.91;5009975;28;20028;-55
2022/12/15 11:42:23;;;;;;;;;;;;;;;4.82;100.00;100984.03;5010195;28;20073;-63
2022/12/15 11:44:51;;;;;;;16.02;7.55;;;;;;;4.79;100.00;100988.38;5009066;28;20411;-65
2022/12/15 11:47:29;;;;;;;14.85;7.57;;;;;;;4.77;100.00;100989.28;5002404;28;20874;-62
2022/12/15 11:50:06;;;;;;;15.60;7.97;;;;;;;4.70;100.00;100985.88;4992948;28;20026;-57
2022/12/15 11:52:56;;;;;;;13.90;8.02;;;;;;;4.71;100.00;100984.97;5006306;28;20076;-66
2022/12/15 11:55:33;;;;;;;13.25;7.80;;;;;;;4.78;100.00;100989.28;4992545;28;20449;-61
2022/12/15 11:58:18;;;;;;;13.15;7.38;;;;;;;4.85;100.00;100982.25;4990997;28;20034;-65
2022/12/15 12:00:57;;;;;;;21.40;8.20;;;;;;;4.78;100.00;100989.28;4989677;28;20061;-64
2022/12/15 12:03:34;;;;;;;16.55;8.45;;;;;;;4.72;100.00;100997.16;4996433;28;20189;-63
2022/12/15 12:06:38;;;;;;;11.73;8.05;;;;;;;4.64;100.00;100989.34;5008192;28;20029;-59
2022/12/15 12:09:37;;;;;;;15.30;8.63;;;;;;;5.08;100.00;100982.97;4998995;28;20145;-63
2022/12/15 12:12:17;;;;;;;18.17;7.95;;;;;;;6.23;100.00;100984.34;5010326;28;20045;-65
2022/12/15 12:14:47;;;;;;;19.13;7.93;;;;;;;7.00;100.00;100984.09;5010442;28;20037;-63
2022/12/15 12:17:32;;;;;;;19.10;7.47;;;;;;;8.09;99.96;100973.31;5009121;28;20052;-63
2022/12/15 12:19:59;;;;;;;13.27;6.85;;;;;;;8.34;94.90;100967.53;5009806;28;20472;-64
2022/12/15 12:22:28;;;;;;;10.98;6.50;;;;;;;9.02;94.05;100961.56;5008807;28;20025;-59
2022/12/15 12:25:03;;;;;;;14.63;7.10;;;;;;;8.91;90.13;100967.13;5007489;28;20025;-64
2022/12/15 12:27:38;;;;;;;10.57;6.95;;;;;;;9.76;87.30;100964.00;5007782;28;20026;-62
2022/12/15 12:30:13;;;;;;;13.35;6.68;;;;;;;10.18;87.13;100956.66;5007313;28;20029;-65
2022/12/15 12:32:50;;;;;;;12.43;6.28;;;;;;;10.79;82.59;100954.78;5001545;28;20034;-65
2022/12/15 12:35:20;;;;;;;12.40;7.20;;;;;;;10.20;83.72;100939.88;5006150;28;20022;-66
2022/12/15 12:37:59;;;;;;;15.13;6.55;;;;;;;10.07;84.15;100947.31;5008998;28;20489;-65
2022/12/15 12:40:39;;;;;;;14.75;7.00;;;;;;;10.28;83.98;100937.03;5008702;28;20053;-59
2022/12/15 12:43:06;;;;;;;12.23;6.18;;;;;;;10.18;84.42;100936.44;5008103;28;20286;-65
2022/12/15 12:45:44;;;;;;;9.05;5.97;;;;;;;10.11;83.91;100940.16;5006808;28;20432;-63
2022/12/15 12:48:30;;;;;;;15.68;6.63;;;;;;;9.81;83.27;100948.94;4999446;28;20376;-62
2022/12/15 12:51:11;;;;;;;12.80;5.43;;;;;;;10.11;84.58;100940.16;5008608;28;20065;-63
2022/12/15 12:53:37;;;;;;;12.73;5.70;;;;;;;10.56;83.95;100930.91;5007942;28;20489;-65
2022/12/15 12:56:02;;;;;;;12.82;5.93;;;;;;;10.80;81.73;100928.38;5007790;28;20109;-65
2022/12/15 12:58:38;;;;;;;11.23;5.55;;;;;;;10.82;81.93;100923.91;5008944;28;20014;-67
2022/12/15 13:01:09;;;;;;;8.60;5.20;;;;;;;10.08;83.70;100925.34;5002391;28;20026;-63
2022/12/15 13:03:38;;;;;;;14.27;5.95;;;;;;;9.94;82.74;100917.84;5008809;28;20037;-66
2022/12/15 13:06:38;;;;;;;10.48;5.70;;;;;;;9.43;84.64;100921.94;5007510;28;20117;-60
2022/12/15 13:09:16;;;;;;;13.65;5.57;;;;;;;8.66;87.39;100921.28;5007389;28;20022;-59
2022/12/15 13:11:56;;;;;;;11.82;5.70;;;;;;;8.09;90.99;100920.81;5007500;28;20535;-62
2022/12/15 13:14:43;;;;;;;9.00;5.50;;;;;;;7.75;92.09;100919.78;5005509;28;20377;-64
2022/12/15 13:17:18;;;;;;;11.85;5.57;;;;;;;7.33;95.42;100921.47;5007969;28;20037;-64
2022/12/15 13:19:59;;;;;;;11.93;5.70;;;;;;;7.14;97.08;100925.34;5006763;28;20644;-64
2022/12/15 13:22:38;;;;;;;9.23;5.20;;;;;;;7.29;96.44;100919.78;5009060;28;20053;-59
2022/12/15 13:25:33;;;;;;;8.13;4.75;;;;;;;7.36;96.20;100920.56;5006849;28;20029;-64
2022/12/15 13:28:00;;;;;;;8.23;4.53;;;;;;;7.23;96.85;100917.31;5007836;28;20072;-64
2022/12/15 13:30:26;;;;;;;6.55;4.18;;;;;;;7.19;96.98;100905.13;5008059;28;20022;-62
2022/12/15 13:32:53;;;;;;;8.32;4.53;;;;;;;7.06;98.05;100904.50;5007531;28;20087;-64
2022/12/15 13:35:18;;;;;;;14.90;5.30;;;;;;;6.89;98.23;100895.19;5006912;28;20045;-65
2022/12/15 13:38:01;;;;;;;9.48;4.47;;;;;;;7.05;98.42;100885.28;5005494;28;20030;-63
2022/12/15 13:40:33;;;;;;;11.15;4.57;;;;;;;7.03;99.09;100891.47;4987422;28;20105;-66